| time (UTC) | temp C | wind direction | speed KPH | gust KPH | rain 1hr cm | rain 24hr cm | rain mn cm | humidity % | barometer mb |
| 20260507104515 | 14 | 266 | 9.7 | 19.3 | 0.00 | 0.66 | 0.00 | 70 | 1013.8 |
| 20260507103517 | 13 | 250 | 11.3 | 22.5 | 0.00 | 0.66 | 0.00 | 71 | 1013.8 |
| 20260507102517 | 14 | 259 | 11.3 | 22.5 | 0.00 | 0.66 | 0.00 | 70 | 1013.7 |
| 20260507101515 | 14 | 237 | 14.5 | 29.0 | 0.00 | 0.66 | 0.00 | 71 | 1013.7 |
| 20260507100537 | 13 | 238 | 14.5 | 29.0 | 0.00 | 0.66 | 0.00 | 73 | 1013.7 |
| 20260507095515 | 13 | 251 | 9.7 | 19.3 | 0.00 | 0.66 | 0.00 | 75 | 1013.6 |
| 20260507094517 | 12 | 259 | 11.3 | 20.9 | 0.00 | 0.66 | 0.00 | 75 | 1013.6 |
| 20260507093515 | 12 | 242 | 8.0 | 17.7 | 0.00 | 0.66 | 0.00 | 74 | 1013.5 |
| 20260507092536 | 12 | 231 | 8.0 | 14.5 | 0.00 | 0.66 | 0.00 | 74 | 1013.4 |
| 20260507091537 | 12 | 238 | 6.4 | 17.7 | 0.00 | 0.66 | 0.00 | 73 | 1013.4 |
| 20260507090515 | 13 | 238 | 8.0 | 17.7 | 0.00 | 0.66 | 0.00 | 72 | 1013.3 |
| 20260507085517 | 13 | 222 | 14.5 | 25.7 | 0.00 | 0.66 | 0.00 | 72 | 1013.2 |
| 20260507084515 | 13 | 238 | 11.3 | 19.3 | 0.00 | 0.66 | 0.00 | 73 | 1013.0 |
| 20260507083515 | 13 | 238 | 11.3 | 25.7 | 0.00 | 0.66 | 0.00 | 74 | 1013.1 |
| 20260507082515 | 13 | 227 | 9.7 | 19.3 | 0.00 | 0.66 | 0.00 | 72 | 1012.9 |
| 20260507081516 | 13 | 224 | 12.9 | 25.7 | 0.00 | 0.66 | 0.00 | 74 | 1012.8 |
| 20260507080517 | 12 | 242 | 11.3 | 24.1 | 0.00 | 0.66 | 0.00 | 75 | 1012.9 |
| 20260507075516 | 12 | 252 | 8.0 | 16.1 | 0.00 | 0.66 | 0.00 | 76 | 1012.9 |
| 20260507074516 | 12 | 237 | 8.0 | 16.1 | 0.00 | 0.66 | 0.00 | 78 | 1012.8 |
| 20260507073556 | 11 | 226 | 9.7 | 19.3 | 0.00 | 0.66 | 0.00 | 78 | 1012.8 |
| 20260507072516 | 11 | 228 | 9.7 | 24.1 | 0.00 | 0.66 | 0.00 | 80 | 1012.7 |
| 20260507071516 | 10 | 209 | 8.0 | 17.7 | 0.00 | 0.66 | 0.00 | 83 | 1012.6 |
| 20260507070536 | 10 | 185 | 4.8 | 11.3 | 0.00 | 0.66 | 0.00 | 84 | 1012.6 |
| 20260507065516 | 10 | 196 | 4.8 | 9.7 | 0.00 | 0.66 | 0.00 | 83 | 1012.6 |
| 20260507064517 | 10 | 213 | 6.4 | 14.5 | 0.00 | 0.66 | 0.00 | 83 | 1012.5 |
| 20260507063516 | 10 | 206 | 8.0 | 12.9 | 0.00 | 0.66 | 0.00 | 84 | 1012.5 |
| 20260507062517 | 10 | 211 | 6.4 | 12.9 | 0.00 | 0.66 | 0.00 | 84 | 1012.5 |
| 20260507061517 | 10 | 221 | 8.0 | 17.7 | 0.00 | 0.66 | 0.00 | 84 | 1012.4 |
| 20260507060515 | 10 | 225 | 8.0 | 16.1 | 0.00 | 0.66 | 0.00 | 85 | 1012.3 |
| 20260507055517 | 9 | 222 | 8.0 | 16.1 | 0.00 | 0.66 | 0.00 | 86 | 1012.2 |
| 20260507054516 | 9 | 208 | 6.4 | 19.3 | 0.00 | 0.66 | 0.00 | 87 | 1012.0 |
| 20260507053518 | 8 | 213 | 6.4 | 12.9 | 0.00 | 0.66 | 0.00 | 88 | 1011.9 |
| 20260507052516 | 8 | 204 | 6.4 | 14.5 | 0.00 | 0.66 | 0.00 | 88 | 1011.9 |
| 20260507051515 | 8 | 187 | 6.4 | 14.5 | 0.00 | 0.66 | 0.00 | 88 | 1011.8 |
| 20260507050517 | 8 | 183 | 4.8 | 9.7 | 0.00 | 0.66 | 0.00 | 88 | 1011.6 |
| 20260507045535 | 8 | 173 | 3.2 | 6.4 | 0.00 | 0.66 | 0.00 | 89 | 1011.6 |
| 20260507044516 | 8 | 164 | 3.2 | 6.4 | 0.00 | 0.66 | 0.00 | 89 | 1011.4 |
| 20260507043516 | 8 | 166 | 3.2 | 8.0 | 0.00 | 0.66 | 0.00 | 89 | 1011.2 |
| 20260507042517 | 8 | 181 | 1.6 | 4.8 | 0.00 | 0.66 | 0.00 | 89 | 1011.2 |
| 20260507041537 | 8 | 0.0 | 0.0 | 0.00 | 0.66 | 0.00 | 89 | 1011.0 | |
| 20260507040516 | 7 | 191 | 0.0 | 1.6 | 0.00 | 0.66 | 0.00 | 89 | 1011.1 |
| 20260507035515 | 7 | 191 | 1.6 | 6.4 | 0.00 | 0.66 | 0.00 | 89 | 1011.1 |
| 20260507034535 | 7 | 192 | 3.2 | 6.4 | 0.00 | 0.66 | 0.00 | 88 | 1011.0 |
| 20260507033517 | 8 | 200 | 1.6 | 6.4 | 0.00 | 0.66 | 0.00 | 88 | 1011.1 |
| 20260507032516 | 8 | 199 | 4.8 | 8.0 | 0.00 | 0.66 | 0.00 | 87 | 1011.2 |
| 20260507031537 | 8 | 191 | 3.2 | 8.0 | 0.00 | 0.66 | 0.00 | 87 | 1011.2 |
| 20260507030518 | 8 | 205 | 4.8 | 9.7 | 0.00 | 0.66 | 0.00 | 87 | 1011.2 |
| 20260507025515 | 8 | 206 | 4.8 | 8.0 | 0.00 | 0.66 | 0.00 | 87 | 1011.0 |
| 20260507024515 | 8 | 216 | 3.2 | 6.4 | 0.00 | 0.66 | 0.00 | 87 | 1010.9 |
| 20260507023535 | 8 | 215 | 3.2 | 8.0 | 0.00 | 0.66 | 0.00 | 87 | 1010.8 |
| 20260507022516 | 8 | 225 | 3.2 | 6.4 | 0.00 | 0.66 | 0.00 | 87 | 1010.8 |
| 20260507021536 | 8 | 221 | 3.2 | 6.4 | 0.00 | 0.66 | 0.00 | 87 | 1010.8 |
| 20260507020517 | 8 | 234 | 4.8 | 8.0 | 0.00 | 0.66 | 0.00 | 87 | 1010.6 |
| 20260507015516 | 8 | 238 | 4.8 | 11.3 | 0.00 | 0.66 | 0.00 | 87 | 1010.5 |
| 20260507014516 | 8 | 233 | 4.8 | 11.3 | 0.00 | 0.66 | 0.00 | 87 | 1010.4 |
| 20260507013516 | 8 | 231 | 4.8 | 11.3 | 0.00 | 0.66 | 0.00 | 87 | 1010.4 |
| 20260507012517 | 8 | 223 | 4.8 | 11.3 | 0.00 | 0.66 | 0.00 | 87 | 1010.4 |
| 20260507011517 | 8 | 227 | 4.8 | 8.0 | 0.00 | 0.66 | 0.00 | 87 | 1010.4 |
| 20260507010516 | 8 | 208 | 4.8 | 11.3 | 0.00 | 0.66 | 0.00 | 87 | 1010.5 |
| 20260507005517 | 8 | 220 | 6.4 | 9.7 | 0.00 | 0.66 | 0.00 | 86 | 1010.4 |
| 20260507004516 | 8 | 229 | 4.8 | 11.3 | 0.00 | 0.66 | 0.00 | 86 | 1010.4 |
| 20260507003515 | 8 | 225 | 4.8 | 14.5 | 0.00 | 0.66 | 0.00 | 86 | 1010.4 |
| 20260507002517 | 9 | 220 | 8.0 | 19.3 | 0.00 | 0.66 | 0.00 | 86 | 1010.4 |
| 20260507001516 | 9 | 215 | 6.4 | 14.5 | 0.00 | 0.69 | 0.00 | 86 | 1010.5 |
| 20260507000517 | 9 | 220 | 8.0 | 14.5 | 0.00 | 0.69 | 0.00 | 87 | 1010.5 |
| 20260506235516 | 9 | 224 | 8.0 | 14.5 | 0.00 | 0.69 | 0.00 | 87 | 1010.6 |
| 20260506234517 | 9 | 222 | 8.0 | 14.5 | 0.00 | 0.69 | 0.00 | 87 | 1010.5 |
| 20260506233518 | 9 | 225 | 6.4 | 16.1 | 0.00 | 0.69 | 0.00 | 87 | 1010.4 |
| 20260506232520 | 9 | 224 | 6.4 | 12.9 | 0.00 | 0.69 | 0.00 | 86 | 1010.3 |
| 20260506231536 | 9 | 216 | 8.0 | 14.5 | 0.00 | 0.69 | 0.00 | 87 | 1010.4 |
| 20260506230515 | 9 | 210 | 8.0 | 14.5 | 0.00 | 0.69 | 0.00 | 87 | 1010.3 |
| 20260506225516 | 9 | 219 | 9.7 | 17.7 | 0.00 | 0.69 | 0.00 | 87 | 1010.4 |
| 20260506224516 | 9 | 214 | 9.7 | 17.7 | 0.00 | 0.69 | 0.00 | 88 | 1010.5 |
| 20260506223537 | 9 | 217 | 9.7 | 19.3 | 0.00 | 0.69 | 0.00 | 88 | 1010.3 |
| 20260506222516 | 9 | 209 | 6.4 | 14.5 | 0.00 | 0.69 | 0.00 | 88 | 1010.3 |
| 20260506221518 | 9 | 221 | 6.4 | 17.7 | 0.00 | 0.69 | 0.00 | 89 | 1010.3 |
| 20260506220516 | 9 | 219 | 8.0 | 12.9 | 0.00 | 0.69 | 0.00 | 89 | 1010.2 |
| 20260506215515 | 9 | 219 | 4.8 | 11.3 | 0.00 | 0.69 | 0.69 | 89 | 1010.1 |
| 20260506214536 | 9 | 203 | 4.8 | 11.3 | 0.00 | 0.69 | 0.69 | 89 | 1010.0 |
| 20260506213516 | 9 | 190 | 4.8 | 9.7 | 0.03 | 0.74 | 0.69 | 89 | 1010.0 |
| 20260506212517 | 9 | 191 | 6.4 | 11.3 | 0.05 | 0.79 | 0.69 | 89 | 1010.1 |
| 20260506211516 | 9 | 187 | 8.0 | 17.7 | 0.05 | 0.81 | 0.69 | 88 | 1010.1 |
| 20260506210555 | 9 | 207 | 6.4 | 14.5 | 0.05 | 0.86 | 0.69 | 88 | 1009.9 |
| 20260506205516 | 9 | 214 | 6.4 | 14.5 | 0.05 | 0.99 | 0.69 | 88 | 1009.7 |
| 20260506204535 | 10 | 221 | 6.4 | 14.5 | 0.05 | 1.07 | 0.69 | 87 | 1009.6 |
| 20260506203517 | 10 | 228 | 8.0 | 16.1 | 0.05 | 1.04 | 0.66 | 87 | 1009.4 |
| 20260506202515 | 10 | 232 | 4.8 | 12.9 | 0.03 | 1.02 | 0.64 | 87 | 1009.4 |
| 20260506201517 | 10 | 234 | 6.4 | 16.1 | 0.05 | 1.02 | 0.64 | 87 | 1009.2 |
| 20260506200516 | 10 | 232 | 8.0 | 14.5 | 0.05 | 1.02 | 0.64 | 87 | 1009.2 |
| 20260506195515 | 10 | 233 | 8.0 | 16.1 | 0.05 | 1.02 | 0.64 | 87 | 1009.1 |
| 20260506194518 | 10 | 237 | 9.7 | 16.1 | 0.05 | 1.02 | 0.64 | 87 | 1009.0 |
| 20260506193515 | 10 | 234 | 11.3 | 19.3 | 0.03 | 0.99 | 0.61 | 86 | 1009.0 |
| 20260506192538 | 10 | 231 | 9.7 | 25.7 | 0.03 | 0.99 | 0.61 | 86 | 1009.0 |
| 20260506191516 | 10 | 237 | 8.0 | 17.7 | 0.00 | 0.99 | 0.61 | 86 | 1008.9 |
| 20260506190558 | 10 | 228 | 12.9 | 20.9 | 0.00 | 0.99 | 0.61 | 85 | 1008.9 |
| 20260506185516 | 10 | 221 | 11.3 | 17.7 | 0.00 | 0.99 | 0.61 | 85 | 1008.7 |
| 20260506184517 | 10 | 228 | 9.7 | 19.3 | 0.00 | 0.99 | 0.61 | 85 | 1008.4 |
| 20260506183516 | 10 | 226 | 9.7 | 20.9 | 0.03 | 0.99 | 0.61 | 85 | 1008.2 |
| 20260506182515 | 10 | 225 | 9.7 | 24.1 | 0.03 | 0.99 | 0.61 | 86 | 1007.9 |
| 20260506181516 | 10 | 227 | 12.9 | 27.4 | 0.05 | 0.99 | 0.61 | 87 | 1007.7 |
| 20260506180515 | 10 | 227 | 11.3 | 19.3 | 0.05 | 0.99 | 0.61 | 87 | 1007.7 |
| 20260506175519 | 11 | 235 | 11.3 | 22.5 | 0.05 | 0.99 | 0.61 | 87 | 1007.5 |
| 20260506174516 | 11 | 228 | 12.9 | 22.5 | 0.05 | 0.99 | 0.61 | 88 | 1007.4 |
| 20260506173517 | 11 | 222 | 16.1 | 37.0 | 0.05 | 0.97 | 0.58 | 89 | 1007.2 |
| 20260506172515 | 12 | 217 | 14.5 | 25.7 | 0.05 | 0.97 | 0.58 | 90 | 1006.9 |
| 20260506171515 | 12 | 213 | 11.3 | 17.7 | 0.03 | 0.94 | 0.56 | 89 | 1006.3 |
| 20260506170516 | 12 | 208 | 8.0 | 14.5 | 0.03 | 0.94 | 0.56 | 89 | 1006.0 |
| 20260506165515 | 12 | 209 | 8.0 | 14.5 | 0.03 | 0.94 | 0.56 | 89 | 1005.8 |
| 20260506164517 | 12 | 206 | 3.2 | 9.7 | 0.00 | 0.91 | 0.53 | 89 | 1005.5 |
| 20260506163517 | 12 | 218 | 4.8 | 11.3 | 0.00 | 0.91 | 0.53 | 88 | 1005.4 |
| 20260506162515 | 12 | 199 | 3.2 | 8.0 | 0.03 | 0.91 | 0.53 | 87 | 1005.4 |
| 20260506161536 | 12 | 228 | 3.2 | 11.3 | 0.23 | 0.91 | 0.53 | 87 | 1005.4 |
| 20260506160517 | 12 | 8 | 6.4 | 12.9 | 0.43 | 0.91 | 0.53 | 86 | 1005.1 |
| 20260506155516 | 12 | 347 | 9.7 | 17.7 | 0.51 | 0.91 | 0.53 | 86 | 1005.2 |
| 20260506154515 | 12 | 346 | 8.0 | 19.3 | 0.51 | 0.91 | 0.53 | 87 | 1005.2 |
| 20260506153517 | 12 | 304 | 9.7 | 19.3 | 0.51 | 0.91 | 0.53 | 86 | 1005.5 |
| 20260506152537 | 12 | 285 | 14.5 | 25.7 | 0.51 | 0.89 | 0.51 | 85 | 1006.0 |
| 20260506151515 | 13 | 245 | 14.5 | 29.0 | 0.30 | 0.71 | 0.33 | 83 | 1006.3 |
| 20260506150516 | 15 | 234 | 17.7 | 33.8 | 0.10 | 0.53 | 0.13 | 77 | 1006.0 |
| 20260506145537 | 16 | 261 | 11.3 | 25.7 | 0.03 | 0.51 | 0.05 | 73 | 1004.3 |
| 20260506144517 | 17 | 299 | 14.5 | 24.1 | 0.00 | 0.58 | 0.03 | 65 | 1003.5 |
| 20260506143516 | 17 | 316 | 9.7 | 20.9 | 0.00 | 0.61 | 0.03 | 64 | 1003.4 |
| 20260506142517 | 18 | 354 | 12.9 | 24.1 | 0.00 | 0.69 | 0.03 | 63 | 1003.1 |
| 20260506141536 | 18 | 342 | 12.9 | 19.3 | 0.00 | 0.79 | 0.03 | 61 | 1003.5 |
| 20260506140517 | 18 | 1 | 11.3 | 20.9 | 0.00 | 0.79 | 0.03 | 61 | 1003.6 |
| 20260506135515 | 19 | 352 | 9.7 | 17.7 | 0.00 | 0.79 | 0.03 | 60 | 1003.7 |
| 20260506134518 | 19 | 359 | 11.3 | 20.9 | 0.00 | 0.79 | 0.03 | 60 | 1003.6 |
| 20260506133516 | 18 | 355 | 11.3 | 17.7 | 0.00 | 0.79 | 0.03 | 62 | 1003.7 |
| 20260506132515 | 18 | 354 | 9.7 | 16.1 | 0.00 | 0.79 | 0.03 | 62 | 1003.9 |
| 20260506131516 | 18 | 352 | 6.4 | 14.5 | 0.00 | 0.79 | 0.03 | 63 | 1004.1 |
| 20260506130515 | 18 | 341 | 9.7 | 17.7 | 0.00 | 0.79 | 0.03 | 62 | 1004.1 |
| 20260506125535 | 19 | 350 | 6.4 | 12.9 | 0.00 | 0.79 | 0.03 | 59 | 1004.2 |
| 20260506124516 | 19 | 69 | 4.8 | 11.3 | 0.00 | 0.79 | 0.03 | 58 | 1004.4 |
| 20260506123517 | 18 | 41 | 6.4 | 12.9 | 0.00 | 0.79 | 0.03 | 57 | 1004.5 |
| 20260506122537 | 18 | 66 | 4.8 | 14.5 | 0.00 | 0.79 | 0.03 | 59 | 1004.5 |
| 20260506121556 | 19 | 64 | 6.4 | 16.1 | 0.00 | 0.79 | 0.03 | 60 | 1004.5 |
| 20260506120537 | 17 | 33 | 9.7 | 16.1 | 0.00 | 0.79 | 0.03 | 61 | 1004.8 |
| 20260506115515 | 17 | 58 | 6.4 | 16.1 | 0.00 | 0.79 | 0.03 | 61 | 1004.9 |
| 20260506114516 | 17 | 53 | 6.4 | 12.9 | 0.00 | 0.79 | 0.03 | 62 | 1005.0 |
| 20260506113517 | 17 | 90 | 4.8 | 12.9 | 0.00 | 0.79 | 0.03 | 62 | 1005.2 |
| 20260506112536 | 17 | 72 | 6.4 | 14.5 | 0.00 | 0.79 | 0.03 | 62 | 1005.2 |
| 20260506111516 | 17 | 20 | 6.4 | 16.1 | 0.00 | 0.79 | 0.03 | 62 | 1005.3 |
| 20260506110517 | 17 | 32 | 4.8 | 12.9 | 0.00 | 0.79 | 0.03 | 62 | 1005.4 |
| 20260506105516 | 17 | 52 | 8.0 | 19.3 | 0.00 | 0.79 | 0.03 | 62 | 1005.6 |